Aérodrome :
LOGIN :

S'inscrire | Disclaimer

   EN    FR    IT 

 










Légende :    VFR   VFR Marginal   IFR   IFR Intensif   IFR Très Intensif
Visi : 
Plafond : 
>= 8 km
>= 3000ft
5 à 8 km
1000 à 3000 ft
1500m à 5 km
500 à 1000 ft
800 à 1500m
200 à 500 ft
< 800m
< 200 ft
Symboles :   Orages  Brouillard  Fortes neiges  Fortes précipitations  Vent > 20 kt
SIGMETs :   Divers  Orages  Givrage  Turbulence  Onde Orograph.  Cendres Volcan.






- Altitude de l'aérodrome : 526 ft
- Code IATA : LTN


EGGW - London Luton

DERNIER METAR :
  • 211120Z AUTO VRB03KT 9999 NCD 18/12 Q1018

METARs EXPIRÉS :
  • 211050Z AUTO VRB03KT 9999 NCD 17/12 Q1018
  • 211020Z AUTO VRB03KT 9999 NCD 16/12 Q1019
  • 210950Z AUTO 05004KT 350V090 9999 FEW007 15/12 Q1019
  • 210920Z AUTO 03004KT 360V060 9999 BKN006 14/12 Q1019
  • 210850Z AUTO 02004KT 8000 OVC004 13/12 Q1019
  • 210820Z AUTO 04004KT 350V080 7000 OVC003 13/12 Q1019

TAF TAF EGGW
Valide du 21 à 06h jusqu'au 22 à 06h UTC


210458Z 2106/2206 35005KT 5000 BR BKN003
PROB30
TEMPO 2106/2108 0300 FG BKN000
BECMG 2108/2110 CAVOK
PROB30
TEMPO 2202/2206 4000 BR
ATIS : +44 1582 395 204



MET'MAP, la Météo Aéronautique d'un coup d'oeil ! - Copyright ORBIFLY Décembre 2007 - Disclaimer

ORBIFLY MET'MAP TEAM :

Programmation & Développement : Alexandra Zaïnal
Sur une idée originale de : Baudouin d'Aumeries
Assistance à la programmation : Marc-Olivier Méhu
Soutien technique & logistique : Manuel Goepfert

Contact : metmap@orbifly.com




SOURCES & CREDITS :

   NOAA